createdAt,value
2023-03-15T00:01:58.795Z,98963.53
2023-03-15T00:06:51.063Z,98976.97
2023-03-15T00:11:42.857Z,98981.84
2023-03-15T00:16:34.717Z,98981.53
2023-03-15T00:33:58.036Z,98986.25
2023-03-15T00:38:51.368Z,99008.97
2023-03-15T00:43:43.771Z,99011.19
2023-03-15T00:48:36.573Z,99015.03
2023-03-15T00:53:28.347Z,99018.59
2023-03-15T00:58:22.244Z,99021.25
2023-03-15T01:03:15.215Z,99020.63
2023-03-15T01:08:06.939Z,99016.78
2023-03-15T01:12:59.908Z,99024.69
2023-03-15T01:17:51.463Z,99032.06
2023-03-15T01:22:43.112Z,99052.81
2023-03-15T01:27:34.952Z,99062.84
2023-03-15T01:32:26.984Z,99073.53
2023-03-15T01:37:18.824Z,99083.19
2023-03-15T01:42:11.319Z,99086.69
2023-03-15T01:47:02.940Z,99084.56
2023-03-15T01:52:17.975Z,99080.84
2023-03-15T01:57:24.455Z,99062.50
2023-03-15T02:02:16.457Z,99076.19
2023-03-15T02:07:09.687Z,99065.03
2023-03-15T02:12:02.528Z,99056.72
2023-03-15T02:16:54.151Z,99069.06
2023-03-15T02:21:58.485Z,99069.56
2023-03-15T02:26:55.974Z,99058.19
2023-03-15T02:31:50.071Z,99051.91
2023-03-15T02:36:41.742Z,99055.56
2023-03-15T02:41:43.373Z,99060.91
2023-03-15T02:46:36.197Z,99066.59
2023-03-15T02:51:29.731Z,99065.09
2023-03-15T02:56:21.627Z,99058.91
2023-03-15T03:01:14.105Z,99077.78
2023-03-15T03:06:06.966Z,99076.09
2023-03-15T03:10:58.596Z,99078.63
2023-03-15T03:15:58.618Z,99080.31
2023-03-15T03:20:50.240Z,99079.00
2023-03-15T03:25:41.895Z,99072.66
2023-03-15T03:30:35.585Z,99070.69
2023-03-15T03:35:27.488Z,99074.50
2023-03-15T03:40:19.298Z,99084.38
2023-03-15T03:45:11.409Z,99077.38
2023-03-15T03:50:03.155Z,99096.56
2023-03-15T03:54:54.766Z,99072.19
2023-03-15T03:59:46.455Z,99063.22
2023-03-15T04:04:41.440Z,99076.03
2023-03-15T04:09:37.577Z,99069.38
2023-03-15T04:14:29.528Z,99076.03
2023-03-15T04:19:21.106Z,99079.03
2023-03-15T04:24:13.306Z,99080.53
2023-03-15T04:29:05.833Z,99074.03
2023-03-15T04:33:57.439Z,99082.03
2023-03-15T04:38:49.728Z,99075.69
2023-03-15T04:43:41.533Z,99075.69
2023-03-15T04:48:33.274Z,99072.03
2023-03-15T04:53:24.835Z,99070.53
2023-03-15T04:58:17.122Z,99077.19
2023-03-15T05:03:08.814Z,99085.03
2023-03-15T05:08:01.227Z,99085.19
2023-03-15T05:12:52.812Z,99094.03
2023-03-15T05:17:46.603Z,99094.03
2023-03-15T05:22:39.395Z,99099.38
2023-03-15T05:27:32.772Z,99101.03
2023-03-15T05:32:26.963Z,99102.69
2023-03-15T05:37:18.544Z,99099.03
2023-03-15T05:42:10.127Z,99099.88
2023-03-15T05:47:01.711Z,99101.53
2023-03-15T05:51:53.363Z,99101.34
2023-03-15T05:56:44.909Z,99107.69
2023-03-15T06:01:36.651Z,99110.19
2023-03-15T06:06:28.250Z,99117.19
2023-03-15T06:11:19.941Z,99124.19
2023-03-15T06:16:11.664Z,99113.53
2023-03-15T06:21:03.947Z,99111.84
2023-03-15T06:25:57.300Z,99119.50
2023-03-15T06:30:48.902Z,99113.69
2023-03-15T06:35:41.503Z,99130.88
2023-03-15T06:40:33.165Z,99129.38
2023-03-15T06:45:24.769Z,99139.22
2023-03-15T06:50:17.120Z,99139.06
2023-03-15T06:55:10.370Z,99153.91
2023-03-15T07:00:01.946Z,99149.56
2023-03-15T07:04:53.750Z,99145.72
2023-03-15T07:09:45.432Z,99145.53
2023-03-15T07:14:37.151Z,99142.69
2023-03-15T07:19:29.123Z,99128.81
2023-03-15T07:24:20.790Z,99118.47
2023-03-15T07:29:12.401Z,99112.28
2023-03-15T07:34:04.268Z,99104.38
2023-03-15T07:38:55.857Z,99099.16
2023-03-15T07:43:47.391Z,99096.09
2023-03-15T07:48:39.098Z,99110.44
2023-03-15T07:53:30.714Z,99104.84
2023-03-15T07:58:22.437Z,99103.81
2023-03-15T08:03:14.343Z,99110.75
2023-03-15T08:08:06.529Z,99108.66
2023-03-15T08:12:58.184Z,99110.31
2023-03-15T08:17:49.836Z,99123.06
2023-03-15T08:22:44.801Z,99111.97
2023-03-15T08:27:36.416Z,99127.84
2023-03-15T08:32:28.039Z,99114.94
2023-03-15T08:37:20.196Z,99117.50
2023-03-15T08:42:12.083Z,99115.84
2023-03-15T08:47:05.285Z,99115.56
2023-03-15T08:51:57.117Z,99120.56
2023-03-15T08:56:48.789Z,99122.94
2023-03-15T09:01:40.534Z,99118.25
2023-03-15T09:06:32.179Z,99115.38
2023-03-15T09:11:23.900Z,99120.00
2023-03-15T09:16:15.794Z,99120.13
2023-03-15T09:21:07.457Z,99121.00
2023-03-15T09:25:59.393Z,99116.84
2023-03-15T09:30:51.371Z,99128.59
2023-03-15T09:35:43.230Z,99136.66
2023-03-15T09:40:40.311Z,99129.84
2023-03-15T09:45:32.312Z,99142.56
2023-03-15T09:50:31.843Z,99136.78
2023-03-15T09:55:27.102Z,99135.31
2023-03-15T10:00:31.069Z,99133.88
2023-03-15T10:05:40.273Z,99137.19
2023-03-15T10:10:36.974Z,99114.47
2023-03-15T10:16:04.084Z,99114.31
2023-03-15T10:21:07.646Z,99112.72
2023-03-15T10:26:00.303Z,99113.75
2023-03-15T10:30:52.851Z,99104.00
2023-03-15T10:35:44.637Z,99116.84
2023-03-15T10:40:59.836Z,99105.47
2023-03-15T10:46:04.742Z,99103.38
2023-03-15T10:50:57.934Z,99101.28
2023-03-15T10:56:07.751Z,99095.72
2023-03-15T11:01:01.889Z,99098.00
2023-03-15T11:05:58.749Z,99091.22
2023-03-15T11:11:00.302Z,99090.88
2023-03-15T11:16:04.365Z,99078.72
2023-03-15T11:20:57.283Z,99074.59
2023-03-15T11:25:49.659Z,99075.03
2023-03-15T11:30:41.788Z,99062.03
2023-03-15T11:35:41.025Z,99069.28
2023-03-15T11:40:48.107Z,99056.47
2023-03-15T11:45:44.982Z,99054.63
2023-03-15T11:50:39.199Z,99046.56
2023-03-15T11:55:32.882Z,99037.91
2023-03-15T12:00:36.525Z,99037.72
2023-03-15T12:06:21.180Z,99041.44
2023-03-15T12:11:34.447Z,99048.06
2023-03-15T12:16:28.972Z,99049.50
2023-03-15T12:21:26.601Z,99052.88
2023-03-15T12:26:30.918Z,99048.34
2023-03-15T12:31:23.026Z,99037.41
2023-03-15T12:36:42.110Z,99030.16
2023-03-15T12:41:35.589Z,99026.25
2023-03-15T12:46:39.497Z,99021.28
2023-03-15T12:52:01.326Z,99017.75
2023-03-15T12:57:07.250Z,99010.31
2023-03-15T13:02:01.515Z,99007.00
2023-03-15T13:07:48.936Z,98994.81
2023-03-15T13:13:21.304Z,98997.94
2023-03-15T13:18:18.613Z,98995.06
2023-03-15T13:23:27.550Z,98983.44
2023-03-15T13:28:24.974Z,98978.66
2023-03-15T13:33:31.702Z,98981.34
2023-03-15T13:38:33.423Z,98965.63
2023-03-15T13:43:37.000Z,98953.41
2023-03-15T13:48:42.247Z,98940.78
2023-03-15T13:53:48.967Z,98930.03
2023-03-15T13:58:43.282Z,98919.03
2023-03-15T14:03:35.390Z,98921.31
2023-03-15T14:08:33.449Z,98910.75
2023-03-15T14:13:29.473Z,98907.25
2023-03-15T14:18:26.336Z,98902.28
2023-03-15T14:23:22.068Z,98884.69
2023-03-15T14:28:16.762Z,98882.19
2023-03-15T14:33:43.104Z,98872.03
2023-03-15T14:38:37.780Z,98878.88
2023-03-15T14:43:29.510Z,98868.53
2023-03-15T14:48:27.700Z,98869.75
2023-03-15T14:53:21.193Z,98859.19
2023-03-15T14:58:18.174Z,98852.38
2023-03-15T15:03:29.638Z,98852.16
2023-03-15T15:08:24.488Z,98834.81
2023-03-15T15:13:25.957Z,98826.94
2023-03-15T15:18:18.296Z,98812.47
2023-03-15T15:23:15.746Z,98809.16
2023-03-15T15:28:08.642Z,98809.78
2023-03-15T15:33:00.399Z,98803.38
2023-03-15T15:37:52.491Z,98789.53
2023-03-15T15:42:47.615Z,98779.78
2023-03-15T15:47:40.011Z,98769.88
2023-03-15T15:52:33.573Z,98761.19
2023-03-15T15:57:26.635Z,98747.34
2023-03-15T16:02:22.328Z,98747.34
2023-03-15T16:07:15.441Z,98732.03
2023-03-15T16:12:13.914Z,98747.75
2023-03-15T16:17:27.540Z,98725.19
2023-03-15T16:22:22.602Z,98724.59
2023-03-15T16:27:18.441Z,98708.47
2023-03-15T16:32:32.843Z,98718.59
2023-03-15T16:37:32.997Z,98696.06
2023-03-15T16:42:25.856Z,98695.84
2023-03-15T16:47:18.038Z,98686.75
2023-03-15T16:52:11.786Z,98677.03
2023-03-15T16:57:03.808Z,98670.63
2023-03-15T17:01:55.624Z,98659.47
2023-03-15T17:11:46.726Z,98646.03
2023-03-15T17:16:38.433Z,98644.38
2023-03-15T17:21:34.821Z,98648.13
2023-03-15T17:26:31.608Z,98649.75
2023-03-15T17:31:25.726Z,98641.88
2023-03-15T17:36:24.611Z,98633.00
2023-03-15T17:41:21.493Z,98639.84
2023-03-15T17:46:13.665Z,98641.06
2023-03-15T17:51:06.122Z,98621.44
2023-03-15T17:55:57.726Z,98635.69
2023-03-15T18:00:56.333Z,98629.50
2023-03-15T18:05:48.042Z,98633.84
2023-03-15T18:10:41.988Z,98628.25
2023-03-15T18:15:34.173Z,98620.19
2023-03-15T18:20:26.114Z,98603.84
2023-03-15T18:25:25.345Z,98603.66
2023-03-15T18:30:19.258Z,98602.38
2023-03-15T18:35:16.164Z,98605.72
2023-03-15T18:40:08.900Z,98591.41
2023-03-15T18:45:01.060Z,98590.19
2023-03-15T18:49:55.492Z,98579.22
2023-03-15T18:54:53.189Z,98590.56
2023-03-15T18:59:44.983Z,98567.84
2023-03-15T19:04:36.974Z,98555.00
2023-03-15T19:09:28.862Z,98554.56
2023-03-15T19:14:21.078Z,98554.56
2023-03-15T19:19:17.066Z,98551.66
2023-03-15T19:24:09.315Z,98550.84
2023-03-15T19:29:03.593Z,98540.09
2023-03-15T19:33:55.682Z,98530.38
2023-03-15T19:38:47.395Z,98517.75
2023-03-15T19:43:42.409Z,98500.78
2023-03-15T19:48:36.068Z,98491.69
2023-03-15T19:53:28.596Z,98491.69
2023-03-15T19:58:20.278Z,98473.47
2023-03-15T20:03:12.822Z,98474.50
2023-03-15T20:08:04.840Z,98465.63
2023-03-15T20:12:59.318Z,98449.72
2023-03-15T20:17:51.568Z,98473.47
2023-03-15T20:22:45.071Z,98460.03
2023-03-15T20:27:37.438Z,98449.88
2023-03-15T20:32:29.917Z,98444.28
2023-03-15T20:37:23.234Z,98442.66
2023-03-15T20:42:15.028Z,98433.75
2023-03-15T20:47:06.770Z,98418.47
2023-03-15T20:51:59.584Z,98414.72
2023-03-15T20:56:51.873Z,98416.59
2023-03-15T21:01:43.630Z,98414.72
2023-03-15T21:06:35.409Z,98417.19
2023-03-15T21:11:27.427Z,98410.34
2023-03-15T21:16:19.168Z,98408.25
2023-03-15T21:21:12.200Z,98392.75
2023-03-15T21:26:07.477Z,98388.63
2023-03-15T21:31:00.043Z,98381.16
2023-03-15T21:35:52.010Z,98382.22
2023-03-15T21:40:48.015Z,98370.38
2023-03-15T21:45:41.225Z,98347.03
2023-03-15T21:50:33.120Z,98352.19
2023-03-15T21:55:25.065Z,98347.63
2023-03-15T22:00:18.506Z,98346.59
2023-03-15T22:05:13.616Z,98355.25
2023-03-15T22:10:06.345Z,98334.34
2023-03-15T22:15:05.324Z,98313.66
2023-03-15T22:19:57.438Z,98317.53
2023-03-15T22:24:49.585Z,98310.53
2023-03-15T22:29:41.818Z,98294.97
2023-03-15T22:34:34.325Z,98287.50
2023-03-15T22:39:26.309Z,98280.88
2023-03-15T22:44:17.943Z,98286.84
2023-03-15T22:49:09.711Z,98271.09
2023-03-15T22:54:01.693Z,98266.91
2023-03-15T22:58:55.770Z,98259.81
2023-03-15T23:03:47.383Z,98255.88
2023-03-15T23:08:39.079Z,98254.34
2023-03-15T23:13:31.193Z,98236.72
2023-03-15T23:18:22.804Z,98246.03
2023-03-15T23:23:14.420Z,98237.75
2023-03-15T23:28:07.423Z,98226.53
2023-03-15T23:33:00.311Z,98220.69
2023-03-15T23:37:53.243Z,98218.59
2023-03-15T23:42:45.004Z,98219.19
2023-03-15T23:47:36.973Z,98189.97
2023-03-15T23:52:29.100Z,98181.44
2023-03-15T23:57:21.155Z,98179.09
